createdAt,value
2018-10-03T00:01:15.834Z,95365.56
2018-10-03T00:03:44.967Z,95369.87
2018-10-03T00:06:14.349Z,95366.96
2018-10-03T00:08:43.392Z,95376.59
2018-10-03T00:11:12.363Z,95380.41
2018-10-03T00:13:41.322Z,95377.95
2018-10-03T00:16:10.409Z,95381.31
2018-10-03T00:18:40.047Z,95379.03
2018-10-03T00:21:09.607Z,95379.64
2018-10-03T00:23:38.755Z,95377.19
2018-10-03T00:26:08.174Z,95380.41
2018-10-03T00:28:37.302Z,95385.44
2018-10-03T00:31:06.614Z,95374.28
2018-10-03T00:33:35.676Z,95390.17
2018-10-03T00:36:04.623Z,95384.06
2018-10-03T00:38:34.339Z,95387.71
2018-10-03T00:41:03.560Z,95386.95
2018-10-03T00:43:32.523Z,95382.98
2018-10-03T00:46:01.534Z,95387.58
2018-10-03T00:48:30.816Z,95379.78
2018-10-03T00:50:59.652Z,95387.88
2018-10-03T00:53:28.764Z,95393.81
2018-10-03T00:55:58.119Z,95386.28
2018-10-03T00:58:27.103Z,95393.16
2018-10-03T01:00:56.102Z,95388.09
2018-10-03T01:03:24.998Z,95385.38
2018-10-03T01:05:54.067Z,95394.41
2018-10-03T01:08:23.082Z,95405.86
2018-10-03T01:10:52.203Z,95400.02
2018-10-03T01:13:21.283Z,95400.31
2018-10-03T01:15:50.597Z,95396.83
2018-10-03T01:18:19.995Z,95394.64
2018-10-03T01:20:49.281Z,95400.75
2018-10-03T01:23:18.381Z,95398.16
2018-10-03T01:25:47.606Z,95400.63
2018-10-03T01:28:16.769Z,95394.95
2018-10-03T01:30:45.783Z,95399.09
2018-10-03T01:33:15.143Z,95401.39
2018-10-03T01:35:44.377Z,95396.50
2018-10-03T01:38:13.717Z,95397.44
2018-10-03T01:40:42.491Z,95400.31
2018-10-03T01:43:11.571Z,95401.41
2018-10-03T01:45:41.576Z,95395.75
2018-10-03T01:48:10.384Z,95405.86
2018-10-03T01:50:39.248Z,95404.01
2018-10-03T01:53:08.459Z,95399.59
2018-10-03T01:55:37.435Z,95398.66
2018-10-03T01:58:06.423Z,95397.89
2018-10-03T02:00:36.516Z,95393.44
2018-10-03T02:03:05.375Z,95388.59
2018-10-03T02:05:34.561Z,95402.51
2018-10-03T02:08:03.352Z,95406.64
2018-10-03T02:10:32.426Z,95406.92
2018-10-03T02:13:02.062Z,95399.44
2018-10-03T02:15:31.403Z,95407.69
2018-10-03T02:18:00.453Z,95403.70
2018-10-03T02:20:29.626Z,95399.43
2018-10-03T02:22:58.823Z,95399.42
2018-10-03T02:25:27.938Z,95402.34
2018-10-03T02:27:56.957Z,95404.61
2018-10-03T02:30:26.177Z,95394.38
2018-10-03T02:32:55.215Z,95390.28
2018-10-03T02:35:24.748Z,95391.66
2018-10-03T02:37:53.955Z,95392.11
2018-10-03T02:40:22.943Z,95389.84
2018-10-03T02:42:52.659Z,95395.80
2018-10-03T02:45:21.962Z,95390.58
2018-10-03T02:47:52.627Z,95397.02
2018-10-03T02:50:22.202Z,95395.67
2018-10-03T02:52:51.302Z,95396.28
2018-10-03T02:55:20.489Z,95395.80
2018-10-03T02:57:50.718Z,95401.46
2018-10-03T03:00:19.912Z,95402.23
2018-10-03T03:02:48.823Z,95400.86
2018-10-03T03:05:18.000Z,95403.77
2018-10-03T03:07:47.291Z,95408.05
2018-10-03T03:10:16.387Z,95407.73
2018-10-03T03:12:45.398Z,95405.14
2018-10-03T03:15:14.955Z,95404.50
2018-10-03T03:17:44.008Z,95403.92
2018-10-03T03:20:13.178Z,95400.41
2018-10-03T03:22:42.563Z,95398.10
2018-10-03T03:25:11.811Z,95397.81
2018-10-03T03:27:40.900Z,95400.09
2018-10-03T03:30:10.278Z,95395.67
2018-10-03T03:32:39.474Z,95400.09
2018-10-03T03:35:08.678Z,95410.63
2018-10-03T03:37:38.223Z,95405.91
2018-10-03T03:40:07.403Z,95403.16
2018-10-03T03:42:36.470Z,95409.41
2018-10-03T03:45:05.895Z,95406.66
2018-10-03T03:47:35.026Z,95412.92
2018-10-03T03:50:04.182Z,95409.11
2018-10-03T03:52:33.308Z,95407.28
2018-10-03T03:55:02.422Z,95407.28
2018-10-03T03:57:31.772Z,95412.02
2018-10-03T04:00:00.799Z,95408.05
2018-10-03T04:02:30.032Z,95409.09
2018-10-03T04:04:59.368Z,95408.80
2018-10-03T04:07:28.437Z,95409.26
2018-10-03T04:09:57.697Z,95407.12
2018-10-03T04:12:27.283Z,95402.98
2018-10-03T04:14:56.344Z,95410.64
2018-10-03T04:17:25.506Z,95417.19
2018-10-03T04:19:54.934Z,95422.84
2018-10-03T04:22:24.111Z,95415.52
2018-10-03T04:24:53.303Z,95419.78
2018-10-03T04:27:22.611Z,95422.08
2018-10-03T04:29:51.791Z,95423.75
2018-10-03T04:32:21.116Z,95429.25
2018-10-03T04:34:50.283Z,95436.91
2018-10-03T04:37:19.352Z,95431.86
2018-10-03T04:39:48.499Z,95440.58
2018-10-03T04:42:18.138Z,95437.83
2018-10-03T04:44:47.305Z,95445.91
2018-10-03T04:47:16.379Z,95448.05
2018-10-03T04:49:45.704Z,95447.16
2018-10-03T04:52:14.854Z,95450.52
2018-10-03T04:54:43.914Z,95457.09
2018-10-03T04:57:13.315Z,95445.19
2018-10-03T04:59:42.526Z,95449.47
2018-10-03T05:02:11.803Z,95452.96
2018-10-03T05:04:41.189Z,95456.16
2018-10-03T05:07:10.384Z,95463.64
2018-10-03T05:09:39.507Z,95468.50
2018-10-03T05:12:08.815Z,95459.15
2018-10-03T05:14:37.967Z,95446.47
2018-10-03T05:17:07.827Z,95461.97
2018-10-03T05:19:37.952Z,95458.05
2018-10-03T05:22:06.967Z,95443.23
2018-10-03T05:24:35.894Z,95447.02
2018-10-03T05:27:05.357Z,95453.93
2018-10-03T05:29:34.428Z,95457.77
2018-10-03T05:32:03.715Z,95456.84
2018-10-03T05:34:33.093Z,95457.58
2018-10-03T05:37:02.247Z,95452.35
2018-10-03T05:39:31.481Z,95451.66
2018-10-03T05:42:00.966Z,95451.46
2018-10-03T05:44:30.059Z,95456.72
2018-10-03T05:46:59.234Z,95457.31
2018-10-03T05:49:28.863Z,95464.08
2018-10-03T05:51:58.155Z,95470.31
2018-10-03T05:54:27.529Z,95469.91
2018-10-03T05:56:56.740Z,95474.61
2018-10-03T05:59:25.844Z,95477.48
2018-10-03T06:01:54.833Z,95473.97
2018-10-03T06:04:24.594Z,95470.66
2018-10-03T06:06:53.757Z,95472.77
2018-10-03T06:09:23.045Z,95473.22
2018-10-03T06:11:52.524Z,95473.78
2018-10-03T06:14:21.550Z,95470.18
2018-10-03T06:16:50.719Z,95476.66
2018-10-03T06:19:20.107Z,95479.38
2018-10-03T06:21:49.514Z,95477.91
2018-10-03T06:24:18.619Z,95480.48
2018-10-03T06:26:47.787Z,95490.88
2018-10-03T06:29:16.942Z,95491.88
2018-10-03T06:31:46.841Z,95495.73
2018-10-03T06:34:16.160Z,95499.70
2018-10-03T06:36:45.319Z,95501.36
2018-10-03T06:39:14.569Z,95502.90
2018-10-03T06:41:44.007Z,95499.41
2018-10-03T06:44:13.070Z,95497.03
2018-10-03T06:46:42.233Z,95501.35
2018-10-03T06:49:11.459Z,95500.75
2018-10-03T06:51:40.619Z,95502.56
2018-10-03T06:54:09.827Z,95499.13
2018-10-03T06:56:39.427Z,95498.95
2018-10-03T06:59:08.714Z,95502.66
2018-10-03T07:01:37.747Z,95497.03
2018-10-03T07:04:07.274Z,95503.42
2018-10-03T07:06:36.542Z,95496.30
2018-10-03T07:09:07.288Z,95497.86
2018-10-03T07:11:36.916Z,95504.22
2018-10-03T07:14:06.039Z,95502.43
2018-10-03T07:16:35.292Z,95506.23
2018-10-03T07:19:04.862Z,95510.56
2018-10-03T07:21:33.907Z,95509.38
2018-10-03T07:24:03.182Z,95495.09
2018-10-03T07:26:32.600Z,95497.00
2018-10-03T07:29:01.909Z,95505.46
2018-10-03T07:31:30.880Z,95497.86
2018-10-03T07:34:00.316Z,95495.20
2018-10-03T07:36:29.511Z,95497.46
2018-10-03T07:38:58.624Z,95496.83
2018-10-03T07:41:27.838Z,95492.09
2018-10-03T07:43:57.058Z,95500.17
2018-10-03T07:46:26.394Z,95494.99
2018-10-03T07:48:55.931Z,95489.14
2018-10-03T07:51:25.061Z,95492.01
2018-10-03T07:53:54.235Z,95488.15
2018-10-03T07:56:23.633Z,95493.14
2018-10-03T07:58:52.914Z,95495.00
2018-10-03T08:01:22.001Z,95483.20
2018-10-03T08:03:51.431Z,95489.02
2018-10-03T08:06:20.700Z,95482.55
2018-10-03T08:08:49.979Z,95482.14
2018-10-03T08:11:19.118Z,95491.05
2018-10-03T08:13:48.147Z,95487.25
2018-10-03T08:16:17.412Z,95483.73
2018-10-03T08:18:46.864Z,95485.23
2018-10-03T08:21:16.121Z,95478.12
2018-10-03T08:23:45.666Z,95482.31
2018-10-03T08:26:15.151Z,95468.03
2018-10-03T08:28:44.419Z,95478.52
2018-10-03T08:31:13.595Z,95478.03
2018-10-03T08:33:42.933Z,95470.80
2018-10-03T08:36:12.214Z,95473.22
2018-10-03T08:38:41.451Z,95461.56
2018-10-03T08:41:10.843Z,95466.52
2018-10-03T08:43:40.136Z,95461.08
2018-10-03T08:46:09.426Z,95469.44
2018-10-03T08:48:38.859Z,95464.00
2018-10-03T08:51:08.600Z,95465.13
2018-10-03T08:53:37.649Z,95462.81
2018-10-03T08:56:06.955Z,95463.12
2018-10-03T08:58:36.293Z,95450.70
2018-10-03T09:01:05.424Z,95454.52
2018-10-03T09:03:34.782Z,95450.55
2018-10-03T09:06:03.928Z,95440.20
2018-10-03T09:08:32.938Z,95438.05
2018-10-03T09:11:01.852Z,95435.41
2018-10-03T09:13:30.840Z,95442.77
2018-10-03T09:15:59.939Z,95438.97
2018-10-03T09:18:29.456Z,95440.56
2018-10-03T09:20:58.549Z,95433.51
2018-10-03T09:23:27.773Z,95428.22
2018-10-03T09:25:57.154Z,95432.64
2018-10-03T09:28:26.382Z,95419.98
2018-10-03T09:30:55.362Z,95425.67
2018-10-03T09:33:24.762Z,95421.45
2018-10-03T09:35:53.628Z,95419.30
2018-10-03T09:38:22.832Z,95428.59
2018-10-03T09:40:52.256Z,95424.93
2018-10-03T09:43:21.533Z,95421.63
2018-10-03T09:45:50.762Z,95419.23
2018-10-03T09:48:20.076Z,95411.91
2018-10-03T09:50:49.178Z,95406.73
2018-10-03T09:53:18.236Z,95408.12
2018-10-03T09:55:47.367Z,95409.23
2018-10-03T09:58:16.379Z,95407.72
2018-10-03T10:00:50.675Z,95403.67
2018-10-03T10:03:19.830Z,95402.03
2018-10-03T10:05:49.163Z,95401.02
2018-10-03T10:08:18.767Z,95392.27
2018-10-03T10:10:47.855Z,95390.14
2018-10-03T10:13:16.950Z,95389.15
2018-10-03T10:15:46.519Z,95385.13
2018-10-03T10:18:15.456Z,95384.71
2018-10-03T10:20:44.720Z,95370.23
2018-10-03T10:23:14.020Z,95376.48
2018-10-03T10:25:43.115Z,95369.98
2018-10-03T10:28:12.139Z,95372.72
2018-10-03T10:30:41.760Z,95375.37
2018-10-03T10:33:11.119Z,95365.46
2018-10-03T10:35:40.383Z,95362.75
2018-10-03T10:38:09.807Z,95365.81
2018-10-03T10:40:38.800Z,95361.85
2018-10-03T10:43:07.743Z,95357.56
2018-10-03T10:45:36.950Z,95363.62
2018-10-03T10:48:06.096Z,95352.93
2018-10-03T10:50:35.218Z,95340.96
2018-10-03T10:53:04.585Z,95337.33
2018-10-03T10:55:33.663Z,95333.91
2018-10-03T10:58:02.910Z,95330.80
2018-10-03T11:00:32.231Z,95321.34
2018-10-03T11:03:01.306Z,95322.70
2018-10-03T11:05:30.283Z,95322.52
2018-10-03T11:07:59.815Z,95322.73
2018-10-03T11:10:29.411Z,95312.09
2018-10-03T11:12:58.546Z,95306.14
2018-10-03T11:15:27.876Z,95299.94
2018-10-03T11:17:57.038Z,95295.16
2018-10-03T11:20:26.183Z,95293.30
2018-10-03T11:22:55.763Z,95289.54
2018-10-03T11:25:24.859Z,95288.89
2018-10-03T11:27:53.949Z,95287.41
2018-10-03T11:30:23.223Z,95287.38
2018-10-03T11:32:52.282Z,95271.58
2018-10-03T11:35:21.335Z,95262.36
2018-10-03T11:37:50.781Z,95260.83
2018-10-03T11:40:19.910Z,95265.17
2018-10-03T11:42:49.914Z,95258.92
2018-10-03T11:45:19.331Z,95253.34
2018-10-03T11:47:48.411Z,95257.33
2018-10-03T11:50:17.335Z,95258.08
2018-10-03T11:52:46.902Z,95251.15
2018-10-03T11:55:15.932Z,95255.63
2018-10-03T11:57:45.131Z,95256.94
2018-10-03T12:00:14.491Z,95252.97
2018-10-03T12:02:43.681Z,95250.13
2018-10-03T12:05:12.983Z,95252.50
2018-10-03T12:07:42.492Z,95247.05
2018-10-03T12:10:11.767Z,95242.57
2018-10-03T12:12:40.845Z,95235.88
2018-10-03T12:15:10.283Z,95242.02
2018-10-03T12:17:39.371Z,95239.95
2018-10-03T12:20:08.627Z,95233.27
2018-10-03T12:22:37.905Z,95233.84
2018-10-03T12:25:07.097Z,95239.98
2018-10-03T12:27:36.248Z,95233.91
2018-10-03T12:30:05.985Z,95230.36
2018-10-03T12:32:35.091Z,95236.08
2018-10-03T12:35:04.270Z,95235.02
2018-10-03T12:37:33.778Z,95233.80
2018-10-03T12:40:03.062Z,95226.56
2018-10-03T12:42:32.139Z,95239.11
2018-10-03T12:45:01.308Z,95237.47
2018-10-03T12:47:30.315Z,95235.88
2018-10-03T12:49:59.507Z,95234.44
2018-10-03T12:52:28.989Z,95230.37
2018-10-03T12:54:58.224Z,95224.38
2018-10-03T12:57:27.315Z,95226.53
2018-10-03T12:59:56.596Z,95229.97
2018-10-03T13:02:25.759Z,95228.16
2018-10-03T13:04:55.033Z,95225.11
2018-10-03T13:07:24.279Z,95216.72
2018-10-03T13:09:53.411Z,95218.94
2018-10-03T13:12:22.565Z,95219.98
2018-10-03T13:14:52.242Z,95222.74
2018-10-03T13:17:21.369Z,95224.28
2018-10-03T13:19:50.475Z,95226.78
2018-10-03T13:24:47.435Z,95222.23
2018-10-03T13:27:16.738Z,95224.41
2018-10-03T13:29:46.132Z,95222.61
2018-10-03T13:32:15.454Z,95225.13
2018-10-03T13:34:44.719Z,95220.80
2018-10-03T13:37:14.198Z,95221.45
2018-10-03T13:39:43.344Z,95221.16
2018-10-03T13:42:12.547Z,95220.39
2018-10-03T13:44:41.947Z,95228.77
2018-10-03T13:47:11.054Z,95233.39
2018-10-03T13:49:40.139Z,95231.70
2018-10-03T13:52:09.771Z,95228.58
2018-10-03T13:54:39.038Z,95233.73
2018-10-03T13:57:08.165Z,95227.87
2018-10-03T13:59:37.479Z,95237.07
2018-10-03T14:02:06.571Z,95226.00
2018-10-03T14:04:35.660Z,95235.96
2018-10-03T14:07:05.051Z,95218.80
2018-10-03T14:09:34.151Z,95231.89
2018-10-03T14:12:03.134Z,95226.66
2018-10-03T14:14:32.332Z,95226.22
2018-10-03T14:17:01.354Z,95236.70
2018-10-03T14:19:30.486Z,95234.93
2018-10-03T14:21:59.628Z,95241.01
2018-10-03T14:24:28.792Z,95254.98
2018-10-03T14:26:57.924Z,95251.64
2018-10-03T14:29:27.151Z,95250.31
2018-10-03T14:31:56.311Z,95250.41
2018-10-03T14:34:25.294Z,95250.47
2018-10-03T14:36:54.527Z,95249.62
2018-10-03T14:39:23.688Z,95251.87
2018-10-03T14:41:52.891Z,95255.55
2018-10-03T14:44:22.367Z,95255.81
2018-10-03T14:46:51.491Z,95258.42
2018-10-03T14:49:20.691Z,95255.06
2018-10-03T14:51:50.687Z,95261.11
2018-10-03T14:54:19.831Z,95256.75
2018-10-03T14:56:48.948Z,95273.50
2018-10-03T14:59:17.959Z,95273.64
2018-10-03T15:01:47.434Z,95273.45
2018-10-03T15:04:16.507Z,95282.06
2018-10-03T15:06:45.590Z,95281.34
2018-10-03T15:09:14.644Z,95278.92
2018-10-03T15:11:43.812Z,95287.53
2018-10-03T15:14:13.211Z,95291.46
2018-10-03T15:16:42.313Z,95291.09
2018-10-03T15:19:11.614Z,95300.83
2018-10-03T15:21:40.720Z,95297.27
2018-10-03T15:24:09.761Z,95299.92
2018-10-03T15:26:38.990Z,95304.63
2018-10-03T15:29:08.320Z,95303.11
2018-10-03T15:31:37.588Z,95319.89
2018-10-03T15:34:06.821Z,95316.23
2018-10-03T15:36:36.247Z,95322.77
2018-10-03T15:39:06.368Z,95322.13
2018-10-03T15:41:35.504Z,95329.80
2018-10-03T15:44:04.759Z,95330.48
2018-10-03T15:46:34.129Z,95334.99
2018-10-03T15:49:03.299Z,95331.69
2018-10-03T15:51:32.629Z,95334.43
2018-10-03T15:54:01.744Z,95347.91
2018-10-03T15:56:30.829Z,95349.26
2018-10-03T15:59:00.132Z,95359.81
2018-10-03T16:01:29.887Z,95366.45
2018-10-03T16:03:59.055Z,95372.44
2018-10-03T16:06:28.419Z,95378.10
2018-10-03T16:08:57.453Z,95376.59
2018-10-03T16:11:26.627Z,95382.00
2018-10-03T16:13:55.787Z,95381.97
2018-10-03T16:16:24.922Z,95385.51
2018-10-03T16:18:54.250Z,95391.10
2018-10-03T16:21:24.092Z,95389.55
2018-10-03T16:23:53.318Z,95395.84
2018-10-03T16:26:22.463Z,95406.95
2018-10-03T16:28:51.930Z,95415.44
2018-10-03T16:31:20.967Z,95410.09
2018-10-03T16:33:50.097Z,95423.72
2018-10-03T16:36:19.598Z,95428.70
2018-10-03T16:38:48.789Z,95433.12
2018-10-03T16:41:17.786Z,95427.65
2018-10-03T16:43:47.095Z,95437.77
2018-10-03T16:46:16.386Z,95434.55
2018-10-03T16:48:46.780Z,95443.90
2018-10-03T16:51:16.160Z,95446.02
2018-10-03T16:53:45.091Z,95453.30
2018-10-03T16:56:14.062Z,95460.36
2018-10-03T16:58:43.392Z,95460.28
2018-10-03T17:01:12.520Z,95459.80
2018-10-03T17:03:41.578Z,95471.84
2018-10-03T17:06:11.107Z,95483.48
2018-10-03T17:08:40.286Z,95477.64
2018-10-03T17:11:09.299Z,95486.36
2018-10-03T17:13:48.880Z,95487.39
2018-10-03T17:16:18.084Z,95490.78
2018-10-03T17:18:47.391Z,95498.25
2018-10-03T17:21:16.655Z,95492.52
2018-10-03T17:23:45.736Z,95496.67
2018-10-03T17:26:14.813Z,95507.70
2018-10-03T17:28:43.815Z,95510.53
2018-10-03T17:31:12.855Z,95502.08
2018-10-03T17:33:42.051Z,95507.81
2018-10-03T17:36:11.446Z,95510.36
2018-10-03T17:38:40.812Z,95512.61
2018-10-03T17:41:09.856Z,95520.69
2018-10-03T17:43:39.214Z,95528.47
2018-10-03T17:46:08.505Z,95532.09
2018-10-03T17:48:37.710Z,95534.75
2018-10-03T17:51:07.183Z,95539.23
2018-10-03T17:53:36.302Z,95542.15
2018-10-03T17:56:05.447Z,95546.06
2018-10-03T17:58:34.831Z,95547.19
2018-10-03T18:01:04.087Z,95554.28
2018-10-03T18:03:33.215Z,95555.86
2018-10-03T18:06:02.440Z,95556.09
2018-10-03T18:08:31.607Z,95555.81
2018-10-03T18:11:00.647Z,95559.07
2018-10-03T18:13:30.078Z,95563.75
2018-10-03T18:15:59.369Z,95562.67
2018-10-03T18:18:28.432Z,95570.41
2018-10-03T18:20:57.574Z,95582.72
2018-10-03T18:23:26.703Z,95579.24
2018-10-03T18:25:55.890Z,95575.59
2018-10-03T18:28:25.371Z,95577.73
2018-10-03T18:30:54.494Z,95575.31
2018-10-03T18:33:23.643Z,95579.61
2018-10-03T18:35:52.735Z,95578.08
2018-10-03T18:38:21.891Z,95584.98
2018-10-03T18:40:50.864Z,95583.11
2018-10-03T18:43:20.238Z,95581.09
2018-10-03T18:45:49.611Z,95578.13
2018-10-03T18:48:18.906Z,95590.88
2018-10-03T18:50:48.567Z,95587.81
2018-10-03T18:53:17.669Z,95588.05
2018-10-03T18:55:46.895Z,95588.96
2018-10-03T18:58:16.418Z,95597.14
2018-10-03T19:00:45.588Z,95599.92
2018-10-03T19:03:14.510Z,95594.58
2018-10-03T19:05:43.656Z,95602.10
2018-10-03T19:08:12.701Z,95602.44
2018-10-03T19:10:41.971Z,95597.53
2018-10-03T19:13:11.033Z,95594.61
2018-10-03T19:15:40.280Z,95590.05
2018-10-03T19:18:09.605Z,95585.55
2018-10-03T19:20:38.818Z,95602.34
2018-10-03T19:23:07.896Z,95602.05
2018-10-03T19:25:36.999Z,95597.45
2018-10-03T19:28:06.026Z,95604.98
2018-10-03T19:30:36.328Z,95609.94
2018-10-03T19:33:05.405Z,95620.04
2018-10-03T19:35:35.777Z,95629.23
2018-10-03T19:38:04.974Z,95638.73
2018-10-03T19:40:34.091Z,95640.01
2018-10-03T19:43:03.155Z,95646.73
2018-10-03T19:45:32.276Z,95646.56
2018-10-03T19:48:01.186Z,95647.33
2018-10-03T19:50:30.463Z,95657.63
2018-10-03T19:52:59.404Z,95663.91
2018-10-03T19:55:28.507Z,95666.66
2018-10-03T19:57:58.207Z,95659.03
2018-10-03T20:00:27.417Z,95657.05
2018-10-03T20:02:56.428Z,95662.53
2018-10-03T20:05:25.655Z,95663.02
2018-10-03T20:07:54.878Z,95660.55
2018-10-03T20:10:23.960Z,95659.48
2018-10-03T20:12:53.469Z,95660.57
2018-10-03T20:15:22.615Z,95659.64
2018-10-03T20:17:51.774Z,95660.89
2018-10-03T20:20:21.084Z,95661.02
2018-10-03T20:22:50.102Z,95660.73
2018-10-03T20:25:19.159Z,95665.78
2018-10-03T20:27:48.466Z,95667.76
2018-10-03T20:30:17.709Z,95660.58
2018-10-03T20:32:47.011Z,95662.87
2018-10-03T20:35:16.139Z,95668.36
2018-10-03T20:37:45.211Z,95670.81
2018-10-03T20:40:14.302Z,95671.57
2018-10-03T20:42:47.528Z,95669.89
2018-10-03T20:45:16.593Z,95668.81
2018-10-03T20:47:47.790Z,95671.98
2018-10-03T20:50:16.906Z,95679.48
2018-10-03T20:52:45.935Z,95682.08
2018-10-03T20:55:15.028Z,95686.37
2018-10-03T20:57:44.505Z,95680.84
2018-10-03T21:00:13.530Z,95683.75
2018-10-03T21:02:42.531Z,95689.52
2018-10-03T21:05:11.569Z,95693.20
2018-10-03T21:07:40.616Z,95708.80
2018-10-03T21:10:09.978Z,95705.57
2018-10-03T21:12:39.087Z,95702.51
2018-10-03T21:15:08.509Z,95704.50
2018-10-03T21:17:37.725Z,95710.28
2018-10-03T21:20:06.879Z,95713.61
2018-10-03T21:22:36.090Z,95721.98
2018-10-03T21:25:05.317Z,95727.92
2018-10-03T21:27:34.547Z,95730.64
2018-10-03T21:30:03.623Z,95726.35
2018-10-03T21:32:32.755Z,95733.97
2018-10-03T21:35:02.179Z,95739.44
2018-10-03T21:37:31.205Z,95752.27
2018-10-03T21:40:00.201Z,95759.75
2018-10-03T21:42:29.642Z,95761.27
2018-10-03T21:44:58.711Z,95757.14
2018-10-03T21:47:27.906Z,95757.20
2018-10-03T21:49:57.161Z,95758.88
2018-10-03T21:52:26.219Z,95763.91
2018-10-03T21:54:55.383Z,95760.42
2018-10-03T21:57:24.638Z,95767.42
2018-10-03T21:59:53.894Z,95761.16
2018-10-03T22:02:23.150Z,95765.41
2018-10-03T22:04:52.747Z,95759.28
2018-10-03T22:07:22.552Z,95763.09
2018-10-03T22:09:51.696Z,95748.32
2018-10-03T22:12:21.215Z,95758.38
2018-10-03T22:14:50.415Z,95757.36
2018-10-03T22:17:23.519Z,95766.19
2018-10-03T22:19:53.191Z,95764.01
2018-10-03T22:22:22.490Z,95762.03
2018-10-03T22:24:52.023Z,95773.31
2018-10-03T22:27:21.029Z,95777.83
2018-10-03T22:29:50.024Z,95778.69
2018-10-03T22:32:19.006Z,95771.63
2018-10-03T22:34:48.183Z,95784.86
2018-10-03T22:37:17.547Z,95785.70
2018-10-03T22:39:46.602Z,95784.45
2018-10-03T22:42:15.746Z,95788.38
2018-10-03T22:44:45.236Z,95788.81
2018-10-03T22:47:14.319Z,95791.72
2018-10-03T22:49:43.235Z,95786.06
2018-10-03T22:52:12.404Z,95795.36
2018-10-03T22:54:41.435Z,95793.17
2018-10-03T22:57:10.439Z,95793.72
2018-10-03T22:59:39.838Z,95797.04
2018-10-03T23:02:09.156Z,95792.44
2018-10-03T23:04:38.587Z,95791.73
2018-10-03T23:07:07.927Z,95795.50
2018-10-03T23:09:37.225Z,95789.99
2018-10-03T23:12:06.444Z,95795.11
2018-10-03T23:14:35.975Z,95799.59
2018-10-03T23:17:05.054Z,95792.16
2018-10-03T23:19:34.002Z,95791.25
2018-10-03T23:22:03.449Z,95789.45
2018-10-03T23:24:32.391Z,95791.19
2018-10-03T23:27:01.407Z,95793.98
2018-10-03T23:29:30.846Z,95797.10
2018-10-03T23:32:00.535Z,95807.48
2018-10-03T23:34:29.695Z,95805.70
2018-10-03T23:36:59.023Z,95813.45
2018-10-03T23:39:28.087Z,95813.66
2018-10-03T23:41:57.119Z,95812.82
2018-10-03T23:44:26.467Z,95818.30
2018-10-03T23:46:55.527Z,95820.56
2018-10-03T23:49:24.774Z,95813.28
2018-10-03T23:51:54.075Z,95812.82
2018-10-03T23:54:23.095Z,95814.53
2018-10-03T23:56:52.243Z,95813.59
2018-10-03T23:59:21.664Z,95817.50
